createdAt,value
2019-03-08T00:01:15.557Z,9.56
2019-03-08T00:03:45.319Z,9.60
2019-03-08T00:06:14.931Z,9.40
2019-03-08T00:08:44.782Z,9.31
2019-03-08T00:13:53.744Z,9.17
2019-03-08T00:16:23.398Z,9.10
2019-03-08T00:18:54.591Z,9.10
2019-03-08T00:21:24.354Z,9.16
2019-03-08T00:23:55.411Z,9.30
2019-03-08T00:26:25.082Z,9.31
2019-03-08T00:28:55.254Z,9.29
2019-03-08T00:31:24.882Z,9.33
2019-03-08T00:33:54.755Z,9.35
2019-03-08T00:36:24.450Z,9.35
2019-03-08T00:38:54.181Z,9.33
2019-03-08T00:41:24.974Z,9.34
2019-03-08T00:43:54.571Z,9.22
2019-03-08T00:46:24.223Z,9.19
2019-03-08T00:48:53.918Z,9.20
2019-03-08T00:51:23.709Z,9.18
2019-03-08T00:53:53.280Z,9.20
2019-03-08T00:56:22.909Z,9.24
2019-03-08T00:58:52.512Z,9.24
2019-03-08T01:01:22.385Z,9.29
2019-03-08T01:03:51.942Z,9.23
2019-03-08T01:06:21.852Z,9.19
2019-03-08T01:08:52.945Z,9.29
2019-03-08T01:11:22.449Z,9.38
2019-03-08T01:13:52.174Z,9.36
2019-03-08T01:16:22.221Z,9.27
2019-03-08T01:18:51.989Z,9.31
2019-03-08T01:21:21.589Z,9.32
2019-03-08T01:23:51.128Z,9.27
2019-03-08T01:26:20.738Z,9.20
2019-03-08T01:28:50.409Z,9.26
2019-03-08T01:31:20.053Z,9.25
2019-03-08T01:33:49.722Z,9.29
2019-03-08T01:36:19.669Z,9.22
2019-03-08T01:38:49.335Z,9.22
2019-03-08T01:41:19.209Z,9.23
2019-03-08T01:43:50.152Z,9.15
2019-03-08T01:46:19.736Z,9.21
2019-03-08T01:48:49.362Z,9.16
2019-03-08T01:51:19.143Z,9.22
2019-03-08T01:53:48.728Z,9.20
2019-03-08T01:56:20.755Z,9.14
2019-03-08T01:58:50.469Z,9.05
2019-03-08T02:01:20.046Z,9.10
2019-03-08T02:03:51.332Z,9.19
2019-03-08T02:06:25.550Z,9.10
2019-03-08T02:08:55.275Z,9.01
2019-03-08T02:11:24.945Z,9.12
2019-03-08T02:13:54.524Z,9.10
2019-03-08T02:16:24.242Z,9.10
2019-03-08T02:18:53.873Z,9.14
2019-03-08T02:21:23.432Z,9.17
2019-03-08T02:23:53.265Z,9.14
2019-03-08T02:26:23.003Z,9.23
2019-03-08T02:28:53.595Z,9.26
2019-03-08T02:31:23.377Z,9.28
2019-03-08T02:33:54.340Z,9.23
2019-03-08T02:36:24.309Z,9.21
2019-03-08T02:38:53.942Z,9.13
2019-03-08T02:41:23.817Z,9.25
2019-03-08T02:43:53.493Z,9.37
2019-03-08T02:46:24.162Z,9.41
2019-03-08T02:48:53.811Z,9.39
2019-03-08T02:51:25.464Z,9.39
2019-03-08T02:53:55.218Z,9.39
2019-03-08T02:56:24.769Z,9.43
2019-03-08T02:58:54.493Z,9.42
2019-03-08T03:01:26.188Z,9.41
2019-03-08T03:03:56.064Z,9.31
2019-03-08T03:06:25.999Z,9.30
2019-03-08T03:08:55.699Z,9.28
2019-03-08T03:11:25.338Z,9.23
2019-03-08T03:13:55.011Z,9.22
2019-03-08T03:16:24.793Z,9.20
2019-03-08T03:18:54.425Z,9.16
2019-03-08T03:21:24.060Z,9.13
2019-03-08T03:23:53.725Z,9.11
2019-03-08T03:26:25.256Z,8.89
2019-03-08T03:28:54.907Z,8.93
2019-03-08T03:31:24.552Z,8.93
2019-03-08T03:33:56.260Z,8.95
2019-03-08T03:36:25.801Z,8.90
2019-03-08T03:38:55.778Z,8.93
2019-03-08T03:41:25.526Z,8.85
2019-03-08T03:43:55.290Z,8.85
2019-03-08T03:46:24.835Z,8.86
2019-03-08T03:48:54.426Z,8.89
2019-03-08T03:51:24.046Z,8.83
2019-03-08T03:53:53.788Z,8.75
2019-03-08T03:56:25.273Z,8.82
2019-03-08T03:58:54.961Z,8.87
2019-03-08T04:01:38.463Z,8.92
2019-03-08T04:04:08.193Z,8.93
2019-03-08T04:06:38.030Z,8.88
2019-03-08T04:09:14.033Z,8.83
2019-03-08T04:11:43.664Z,8.90
2019-03-08T04:14:13.260Z,8.81
2019-03-08T04:16:45.187Z,8.52
2019-03-08T04:19:14.818Z,8.39
2019-03-08T04:21:44.522Z,8.39
2019-03-08T04:24:14.145Z,8.38
2019-03-08T04:26:43.824Z,8.30
2019-03-08T04:29:13.458Z,8.08
2019-03-08T04:31:43.123Z,8.15
2019-03-08T04:34:12.751Z,8.15
2019-03-08T04:36:42.350Z,8.08
2019-03-08T04:39:12.046Z,8.05
2019-03-08T04:41:41.673Z,8.05
2019-03-08T04:44:11.087Z,8.06
2019-03-08T04:46:40.759Z,7.98
2019-03-08T04:49:10.492Z,7.98
2019-03-08T04:51:41.466Z,7.96
2019-03-08T04:54:11.005Z,8.01
2019-03-08T04:56:42.842Z,8.06
2019-03-08T04:59:12.427Z,8.06
2019-03-08T05:01:42.062Z,8.12
2019-03-08T05:04:12.065Z,8.12
2019-03-08T05:06:41.908Z,8.19
2019-03-08T05:09:11.644Z,8.29
2019-03-08T05:11:41.297Z,8.35
2019-03-08T05:14:10.887Z,8.46
2019-03-08T05:16:40.554Z,8.60
2019-03-08T05:19:11.618Z,8.48
2019-03-08T05:21:41.074Z,8.49
2019-03-08T05:24:10.981Z,8.52
2019-03-08T05:26:40.487Z,8.55
2019-03-08T05:29:13.745Z,8.61
2019-03-08T05:31:43.507Z,8.64
2019-03-08T05:34:13.165Z,8.73
2019-03-08T05:36:43.077Z,8.81
2019-03-08T05:39:12.742Z,8.94
2019-03-08T05:41:42.483Z,9.00
2019-03-08T05:44:12.115Z,9.02
2019-03-08T05:46:41.745Z,9.27
2019-03-08T05:49:11.298Z,9.32
2019-03-08T05:51:40.955Z,9.47
2019-03-08T05:54:10.378Z,9.83
2019-03-08T05:56:39.980Z,10.07
2019-03-08T05:59:09.624Z,10.14
2019-03-08T06:01:39.312Z,10.47
2019-03-08T06:04:09.190Z,10.81
2019-03-08T06:06:38.848Z,10.98
2019-03-08T06:09:09.444Z,11.19
2019-03-08T06:11:39.129Z,11.19
2019-03-08T06:14:09.770Z,11.22
2019-03-08T06:16:39.328Z,11.05
2019-03-08T06:19:09.328Z,10.89
2019-03-08T06:21:38.932Z,10.87
2019-03-08T06:24:09.214Z,11.17
2019-03-08T06:26:38.950Z,11.82
2019-03-08T06:29:08.579Z,12.59
2019-03-08T06:31:39.993Z,13.84
2019-03-08T06:34:10.710Z,14.43
2019-03-08T06:36:40.367Z,15.80
2019-03-08T06:39:10.107Z,16.69
2019-03-08T06:41:39.860Z,16.63
2019-03-08T06:44:09.608Z,18.04
2019-03-08T06:46:39.379Z,19.90
2019-03-08T06:49:09.080Z,21.74
2019-03-08T06:51:38.678Z,22.63
2019-03-08T06:54:08.344Z,24.22
2019-03-08T06:56:38.142Z,25.27
2019-03-08T06:59:12.436Z,26.64
2019-03-08T07:01:42.741Z,26.97
2019-03-08T07:04:12.223Z,28.25
2019-03-08T07:06:41.769Z,26.65
2019-03-08T07:09:11.325Z,27.51
2019-03-08T07:11:41.004Z,29.00
2019-03-08T07:14:13.162Z,29.07
2019-03-08T07:16:42.804Z,30.52
2019-03-08T07:19:12.394Z,30.91
2019-03-08T07:21:54.073Z,30.83
2019-03-08T07:24:41.363Z,31.62
2019-03-08T07:27:22.078Z,32.28
2019-03-08T07:30:10.830Z,32.65
2019-03-08T07:33:02.464Z,31.51
2019-03-08T07:36:06.943Z,32.64
2019-03-08T07:38:47.083Z,33.84
2019-03-08T07:41:34.179Z,33.92
2019-03-08T07:44:38.034Z,34.55
2019-03-08T07:47:19.367Z,34.90
2019-03-08T07:50:06.640Z,34.40
2019-03-08T07:52:57.386Z,33.14
2019-03-08T07:55:54.904Z,32.09
2019-03-08T07:58:42.488Z,30.67
2019-03-08T08:01:30.995Z,30.21
2019-03-08T08:04:13.248Z,31.08
2019-03-08T08:06:48.023Z,33.35
2019-03-08T08:09:46.689Z,34.21
2019-03-08T08:12:34.305Z,34.99
2019-03-08T08:15:10.440Z,35.25
2019-03-08T08:17:46.295Z,36.74
2019-03-08T08:20:37.748Z,37.20
2019-03-08T08:23:18.936Z,37.76
2019-03-08T08:26:20.145Z,37.20
2019-03-08T08:29:17.747Z,38.50
2019-03-08T08:32:06.458Z,39.32
2019-03-08T08:34:53.850Z,39.39
2019-03-08T08:37:42.380Z,39.91
2019-03-08T08:40:37.260Z,40.53
2019-03-08T08:43:16.115Z,40.78
2019-03-08T08:45:59.238Z,41.10
2019-03-08T08:48:35.914Z,42.03
2019-03-08T08:51:20.665Z,42.46
2019-03-08T08:54:02.873Z,41.75
2019-03-08T08:56:50.101Z,41.67
2019-03-08T08:59:47.577Z,42.65
2019-03-08T09:02:45.097Z,43.01
2019-03-08T09:05:39.792Z,41.99
2019-03-08T09:08:37.723Z,42.67
2019-03-08T09:11:29.232Z,42.84
2019-03-08T09:14:17.762Z,43.96
2019-03-08T09:16:59.183Z,44.23
2019-03-08T09:19:47.715Z,43.81
2019-03-08T09:22:29.863Z,42.63
2019-03-08T09:25:15.457Z,43.51
2019-03-08T09:28:03.951Z,43.36
2019-03-08T09:30:42.669Z,44.04
2019-03-08T09:33:31.697Z,42.48
2019-03-08T09:36:16.446Z,42.58
2019-03-08T09:39:11.021Z,42.94
2019-03-08T09:42:05.636Z,43.55
2019-03-08T09:44:43.933Z,42.69
2019-03-08T09:47:32.040Z,43.19
2019-03-08T09:50:25.507Z,43.31
2019-03-08T09:53:00.555Z,44.32
2019-03-08T09:55:58.815Z,44.34
2019-03-08T09:58:47.218Z,44.86
2019-03-08T10:01:35.652Z,44.28
2019-03-08T10:04:14.182Z,44.33
2019-03-08T10:07:08.549Z,43.89
2019-03-08T10:10:07.633Z,43.48
2019-03-08T10:13:06.569Z,43.18
2019-03-08T10:15:50.824Z,43.12
2019-03-08T10:18:42.108Z,42.27
2019-03-08T10:21:20.905Z,42.33
2019-03-08T10:24:10.124Z,42.68
2019-03-08T10:27:14.485Z,42.83
2019-03-08T10:30:01.320Z,42.78
2019-03-08T10:32:53.087Z,43.34
2019-03-08T10:35:40.408Z,41.83
2019-03-08T10:38:24.718Z,41.83
2019-03-08T10:41:09.027Z,42.07
2019-03-08T10:44:08.666Z,41.94
2019-03-08T10:46:54.088Z,42.45
2019-03-08T10:49:36.711Z,43.00
2019-03-08T10:52:24.108Z,43.80
2019-03-08T10:55:12.710Z,42.80
2019-03-08T10:57:57.454Z,42.57
2019-03-08T11:00:44.795Z,42.09
2019-03-08T11:03:33.174Z,41.03
2019-03-08T11:06:30.995Z,40.09
2019-03-08T11:09:19.582Z,37.84
2019-03-08T11:12:08.487Z,36.86
2019-03-08T11:14:56.466Z,36.07
2019-03-08T11:17:51.188Z,35.77
2019-03-08T11:20:57.926Z,36.76
2019-03-08T11:23:45.062Z,38.85
2019-03-08T11:26:39.682Z,39.40
2019-03-08T11:29:31.231Z,40.55
2019-03-08T11:32:23.049Z,40.63
2019-03-08T11:35:02.235Z,39.16
2019-03-08T11:37:42.532Z,38.33
2019-03-08T11:40:21.587Z,37.55
2019-03-08T11:43:03.397Z,37.77
2019-03-08T11:45:52.073Z,36.84
2019-03-08T11:48:28.742Z,35.81
2019-03-08T11:51:33.885Z,35.05
2019-03-08T11:54:21.357Z,34.14
2019-03-08T11:57:22.046Z,32.90
2019-03-08T12:00:05.166Z,32.06
2019-03-08T12:02:51.579Z,31.37
2019-03-08T12:05:58.229Z,30.65
2019-03-08T12:08:58.829Z,30.31
2019-03-08T12:11:38.656Z,29.85
2019-03-08T12:14:30.175Z,29.64
2019-03-08T12:17:21.675Z,28.78
2019-03-08T12:19:56.748Z,28.74
2019-03-08T12:22:45.233Z,28.67
2019-03-08T12:25:42.689Z,28.32
2019-03-08T12:28:32.442Z,27.95
2019-03-08T12:31:30.790Z,27.69
2019-03-08T12:34:31.944Z,27.53
2019-03-08T12:37:20.511Z,27.61
2019-03-08T12:40:04.576Z,27.41
2019-03-08T12:42:55.846Z,27.19
2019-03-08T12:45:43.210Z,27.04
2019-03-08T12:48:37.642Z,26.89
2019-03-08T12:51:20.549Z,26.33
2019-03-08T12:54:07.705Z,26.27
2019-03-08T12:57:11.761Z,26.35
2019-03-08T13:00:10.602Z,26.09
2019-03-08T13:02:59.068Z,25.92
2019-03-08T13:05:41.690Z,25.95
2019-03-08T13:08:22.496Z,25.97
2019-03-08T13:10:52.276Z,25.96
2019-03-08T13:13:21.894Z,25.81
2019-03-08T13:15:51.542Z,26.02
2019-03-08T13:18:22.790Z,25.85
2019-03-08T13:20:53.839Z,25.55
2019-03-08T13:23:23.476Z,25.43
2019-03-08T13:25:53.206Z,25.31
2019-03-08T13:28:22.958Z,25.22
2019-03-08T13:30:52.499Z,25.29
2019-03-08T13:33:22.415Z,25.27
2019-03-08T13:35:53.541Z,25.32
2019-03-08T13:38:25.742Z,25.34
2019-03-08T13:40:55.365Z,25.45
2019-03-08T13:43:26.833Z,25.40
2019-03-08T13:45:56.441Z,25.51
2019-03-08T13:48:25.906Z,25.63
2019-03-08T13:50:55.547Z,25.62
2019-03-08T13:53:25.410Z,25.63
2019-03-08T13:55:55.157Z,25.66
2019-03-08T13:58:24.869Z,25.66
2019-03-08T14:00:54.484Z,25.66
2019-03-08T14:03:24.084Z,25.76
2019-03-08T14:05:53.706Z,25.83
2019-03-08T14:08:23.562Z,25.89
2019-03-08T14:10:53.191Z,25.73
2019-03-08T14:13:23.093Z,25.69
2019-03-08T14:15:52.658Z,25.59
2019-03-08T14:18:22.189Z,25.39
2019-03-08T14:20:51.978Z,25.30
2019-03-08T14:23:21.655Z,25.19
2019-03-08T14:25:52.518Z,25.10
2019-03-08T14:28:24.919Z,25.03
2019-03-08T14:31:08.899Z,24.93
2019-03-08T14:33:38.954Z,24.92
2019-03-08T14:36:08.948Z,24.89
2019-03-08T14:38:38.927Z,24.86
2019-03-08T14:41:30.755Z,24.83
2019-03-08T14:44:12.640Z,24.82
2019-03-08T14:46:47.717Z,24.82
2019-03-08T14:49:19.333Z,24.73
2019-03-08T14:51:49.651Z,24.67
2019-03-08T14:54:19.567Z,24.55
2019-03-08T14:56:49.236Z,24.49
2019-03-08T14:59:18.754Z,24.24
2019-03-08T15:01:48.427Z,24.10
2019-03-08T15:04:18.175Z,24.01
2019-03-08T15:06:48.997Z,23.85
2019-03-08T15:09:18.732Z,23.83
2019-03-08T15:11:48.422Z,23.81
2019-03-08T15:14:19.650Z,23.69
2019-03-08T15:16:49.441Z,23.47
2019-03-08T15:19:19.117Z,23.39
2019-03-08T15:21:50.334Z,23.33
2019-03-08T15:24:20.076Z,23.12
2019-03-08T15:26:49.754Z,23.04
2019-03-08T15:29:19.506Z,22.88
2019-03-08T15:31:49.333Z,22.65
2019-03-08T15:34:21.283Z,22.46
2019-03-08T15:36:50.377Z,22.48
2019-03-08T15:39:20.269Z,22.48
2019-03-08T15:41:49.883Z,22.45
2019-03-08T15:44:19.628Z,22.37
2019-03-08T15:46:49.345Z,22.32
2019-03-08T15:49:18.971Z,22.29
2019-03-08T15:51:48.601Z,22.15
2019-03-08T15:54:18.301Z,22.08
2019-03-08T15:56:47.944Z,21.98
2019-03-08T15:59:17.614Z,21.80
2019-03-08T16:01:47.301Z,21.71
2019-03-08T16:04:18.948Z,21.63
2019-03-08T16:06:48.310Z,21.52
2019-03-08T16:09:17.974Z,21.42
2019-03-08T16:11:47.645Z,21.26
2019-03-08T16:14:17.322Z,21.12
2019-03-08T16:16:50.833Z,21.05
2019-03-08T16:19:20.895Z,20.94
2019-03-08T16:21:52.023Z,20.87
2019-03-08T16:24:21.743Z,20.78
2019-03-08T16:26:51.424Z,20.70
2019-03-08T16:29:20.907Z,20.58
2019-03-08T16:32:18.572Z,20.51
2019-03-08T16:34:48.839Z,20.42
2019-03-08T16:37:23.466Z,20.33
2019-03-08T16:40:14.541Z,20.23
2019-03-08T16:42:59.933Z,20.13
2019-03-08T16:45:54.936Z,20.07
2019-03-08T16:48:29.950Z,20.03
2019-03-08T16:51:17.152Z,19.98
2019-03-08T16:53:55.608Z,19.86
2019-03-08T16:56:35.989Z,19.76
2019-03-08T16:59:24.641Z,19.69
2019-03-08T17:02:16.277Z,19.66
2019-03-08T17:05:07.610Z,19.58
2019-03-08T17:07:49.835Z,19.51
2019-03-08T17:10:41.418Z,19.43
2019-03-08T17:13:33.029Z,19.37
2019-03-08T17:16:22.852Z,19.30
2019-03-08T17:19:12.166Z,19.27
2019-03-08T17:21:54.185Z,19.21
2019-03-08T17:24:40.228Z,19.01
2019-03-08T17:27:27.773Z,18.81
2019-03-08T17:30:18.597Z,18.57
2019-03-08T17:33:16.450Z,18.54
2019-03-08T17:36:13.969Z,18.55
2019-03-08T17:38:54.953Z,18.57
2019-03-08T17:41:49.630Z,18.56
2019-03-08T17:44:38.176Z,18.51
2019-03-08T17:47:28.344Z,18.30
2019-03-08T17:50:20.113Z,18.21
2019-03-08T17:53:06.992Z,18.03
2019-03-08T17:55:54.677Z,17.86
2019-03-08T17:58:42.116Z,17.82
2019-03-08T18:01:39.779Z,17.62
2019-03-08T18:04:31.334Z,17.57
2019-03-08T18:07:24.779Z,17.58
2019-03-08T18:10:09.597Z,17.46
2019-03-08T18:12:56.825Z,17.36
2019-03-08T18:15:54.526Z,17.28
2019-03-08T18:18:58.928Z,17.18
2019-03-08T18:21:46.449Z,17.14
2019-03-08T18:24:44.244Z,17.06
2019-03-08T18:27:39.736Z,16.91
2019-03-08T18:30:44.458Z,16.73
2019-03-08T18:33:22.438Z,16.63
2019-03-08T18:36:23.177Z,16.53
2019-03-08T18:39:01.020Z,16.47
2019-03-08T18:42:02.139Z,16.44
2019-03-08T18:44:53.718Z,16.39
2019-03-08T18:47:46.900Z,16.30
2019-03-08T18:50:35.731Z,16.12
2019-03-08T18:53:21.531Z,16.12
2019-03-08T18:56:10.041Z,16.11
2019-03-08T18:59:07.868Z,16.03
2019-03-08T19:02:02.668Z,16.02
2019-03-08T19:04:50.238Z,15.92
2019-03-08T19:07:40.910Z,15.85
2019-03-08T19:10:29.258Z,15.78
2019-03-08T19:13:12.449Z,15.71
2019-03-08T19:16:00.976Z,15.58
2019-03-08T19:19:08.120Z,15.53
2019-03-08T19:22:15.141Z,15.48
2019-03-08T19:25:09.591Z,15.42
2019-03-08T19:28:09.948Z,15.34
2019-03-08T19:30:51.531Z,15.25
2019-03-08T19:33:39.170Z,15.21
2019-03-08T19:36:27.735Z,15.22
2019-03-08T19:39:13.560Z,15.26
2019-03-08T19:42:00.885Z,15.05
2019-03-08T19:44:41.152Z,14.96
2019-03-08T19:47:33.531Z,15.05
2019-03-08T19:50:27.006Z,15.03
2019-03-08T19:53:18.329Z,14.98
2019-03-08T19:56:25.743Z,14.94
2019-03-08T19:59:05.045Z,14.90
2019-03-08T20:01:48.833Z,14.78
2019-03-08T20:04:37.258Z,14.65
2019-03-08T20:07:33.988Z,14.61
2019-03-08T20:10:12.282Z,14.56
2019-03-08T20:13:02.085Z,14.59
2019-03-08T20:15:42.986Z,14.52
2019-03-08T20:18:51.158Z,14.41
2019-03-08T20:21:42.009Z,14.36
2019-03-08T20:24:30.666Z,14.24
2019-03-08T20:27:18.558Z,14.15
2019-03-08T20:30:07.594Z,13.93
2019-03-08T20:32:53.526Z,13.88
2019-03-08T20:35:54.733Z,13.87
2019-03-08T20:38:55.547Z,13.97
2019-03-08T20:41:35.320Z,13.88
2019-03-08T20:44:29.769Z,13.80
2019-03-08T20:47:10.945Z,13.68
2019-03-08T20:49:40.640Z,13.79
2019-03-08T20:52:10.399Z,13.80
2019-03-08T20:54:40.108Z,13.79
2019-03-08T20:57:09.962Z,13.71
2019-03-08T20:59:39.893Z,13.64
2019-03-08T21:02:09.804Z,13.60
2019-03-08T21:04:39.546Z,13.66
2019-03-08T21:07:09.127Z,13.65
2019-03-08T21:09:38.769Z,13.61
2019-03-08T21:12:08.527Z,13.60
2019-03-08T21:14:38.010Z,13.55
2019-03-08T21:17:08.815Z,13.56
2019-03-08T21:19:39.981Z,13.50
2019-03-08T21:22:09.935Z,13.50
2019-03-08T21:24:39.498Z,13.49
2019-03-08T21:27:09.145Z,13.30
2019-03-08T21:29:38.855Z,13.10
2019-03-08T21:32:08.584Z,13.17
2019-03-08T21:34:38.330Z,13.18
2019-03-08T21:37:07.920Z,13.13
2019-03-08T21:39:37.618Z,13.02
2019-03-08T21:42:07.437Z,12.93
2019-03-08T21:44:37.249Z,12.97
2019-03-08T21:47:07.020Z,12.95
2019-03-08T21:49:36.650Z,12.93
2019-03-08T21:52:06.400Z,12.89
2019-03-08T21:54:36.158Z,12.76
2019-03-08T21:57:05.767Z,12.78
2019-03-08T21:59:35.377Z,12.78
2019-03-08T22:02:05.165Z,12.73
2019-03-08T22:04:38.771Z,12.69
2019-03-08T22:07:08.497Z,12.63
2019-03-08T22:09:43.103Z,12.62
2019-03-08T22:12:12.969Z,12.50
2019-03-08T22:14:42.548Z,12.50
2019-03-08T22:17:12.181Z,12.36
2019-03-08T22:19:41.988Z,12.34
2019-03-08T22:22:11.784Z,12.33
2019-03-08T22:24:41.558Z,12.20
2019-03-08T22:27:11.115Z,12.08
2019-03-08T22:29:40.800Z,12.10
2019-03-08T22:32:10.510Z,12.14
2019-03-08T22:34:40.119Z,12.06
2019-03-08T22:37:09.764Z,12.01
2019-03-08T22:39:39.401Z,12.03
2019-03-08T22:42:09.078Z,11.92
2019-03-08T22:44:38.984Z,11.85
2019-03-08T22:47:08.530Z,11.87
2019-03-08T22:49:38.417Z,11.90
2019-03-08T22:52:07.988Z,11.83
2019-03-08T22:54:37.652Z,11.85
2019-03-08T22:57:07.132Z,11.76
2019-03-08T22:59:36.895Z,11.78
2019-03-08T23:02:08.948Z,11.70
2019-03-08T23:04:38.961Z,11.54
2019-03-08T23:07:08.592Z,11.55
2019-03-08T23:09:38.443Z,11.38
2019-03-08T23:12:08.079Z,11.39
2019-03-08T23:14:37.815Z,11.46
2019-03-08T23:17:07.387Z,11.51
2019-03-08T23:19:37.128Z,11.47
2019-03-08T23:22:07.147Z,11.52
2019-03-08T23:24:36.864Z,11.43
2019-03-08T23:27:28.404Z,11.45
2019-03-08T23:30:04.601Z,11.48
2019-03-08T23:32:40.268Z,11.38
2019-03-08T23:35:10.045Z,11.36
2019-03-08T23:37:39.501Z,11.23
2019-03-08T23:40:09.280Z,11.33
2019-03-08T23:42:38.848Z,11.37
2019-03-08T23:45:08.831Z,11.32
2019-03-08T23:47:38.422Z,11.33
2019-03-08T23:50:08.759Z,11.19
2019-03-08T23:52:38.530Z,11.12
2019-03-08T23:55:08.814Z,11.19
2019-03-08T23:57:38.724Z,11.27
